Flight Track Log - Related Links

Times and Time Zones

All times are in EDT time to prevent confusion due to time zone crossing. See the EJA941 flight status page for this flight to view local times or setup timezone preferences in your user account.

Time Position Orientation Groundspeed Altitude Reporting Facility
EDT Latitude Longitude Course Direction KTS MPH feet Rate Location/Type
Thu 08:34:32 AM 34.6453 -87.5272 155° Southeast 417 480 7,400  Level Memphis Center
Thu 08:35:32 AM 34.5817 -87.4839 151° Southeast 333 383 10,500 2,250 Climbing Memphis Center
Thu 08:36:32 AM 34.5033 -87.4336 152° Southeast 320 368 11,900 2,000 Climbing Memphis Center
Thu 08:37:32 AM 34.4164 -87.3761 151° Southeast 327 376 14,500 1,784 Climbing Memphis Center
Thu 08:39:00 AM 34.0975 -87.1653 155° Southeast  Level FlightAware Approximate
Thu 08:39:37 AM 34.2239 -87.2519 152° Southeast 387 445 17,400  Level Atlanta Center
Thu 08:40:37 AM 34.1275 -87.1906 152° Southeast 397 457 18,900 1,650 Climbing Atlanta Center
Thu 08:41:37 AM 34.0311 -87.1294 152° Southeast 397 457 20,700 1,800 Climbing Atlanta Center
Thu 08:42:37 AM 33.9303 -87.0656 152° Southeast 402 463 22,500 1,600 Climbing Atlanta Center
Thu 08:43:37 AM 33.8275 -86.9994 152° Southeast 407 468 23,900 1,450 Climbing Atlanta Center
Thu 08:44:37 AM 33.7186 -86.9308 152° Southeast 420 483 25,400 1,400 Climbing Atlanta Center
Thu 08:45:37 AM 33.6378 -86.8183 131° Southeast 433 498 26,700 1,350 Climbing Atlanta Center
Thu 08:46:37 AM 33.5886 -86.6747 112° Southeast 442 509 28,100 1,300 Climbing Atlanta Center
Thu 08:47:37 AM 33.5372 -86.5336 114° Southeast 452 520 29,300 1,350 Climbing Atlanta Center
Thu 08:48:37 AM 33.4800 -86.3700 113° Southeast 472 543 30,800 1,550 Climbing Atlanta Center
Thu 08:49:37 AM 33.4264 -86.2192 113° Southeast 482 555 32,400 1,450 Climbing Atlanta Center
Thu 08:50:37 AM 33.3686 -86.0636 114° Southeast 488 562 33,700 1,800 Climbing Atlanta Center
Thu 08:51:37 AM 33.3125 -85.9056 113° Southeast 502 578 36,000 1,650 Climbing Atlanta Center
Thu 08:52:37 AM 33.2542 -85.7528 115° Southeast 502 578 37,000 500 Climbing Atlanta Center
Thu 08:53:37 AM 33.1958 -85.5928 114° Southeast 509 586 37,000  Level Atlanta Center
Thu 08:54:37 AM 33.1353 -85.4281 114° Southeast 522 601 37,000  Level Atlanta Center
Thu 08:55:37 AM 33.0722 -85.2658 115° Southeast 528 608 37,000 -500 Level Atlanta Center
Thu 08:56:37 AM 33.0006 -85.1139 119° Southeast 528 608 36,000 -850 Descending Atlanta Center
Thu 08:57:37 AM 32.9244 -84.9692 122° Southeast 522 601 35,300 -950 Descending Atlanta Center
Thu 08:58:37 AM 32.8378 -84.8250 126° Southeast 527 606 34,100 -650 Descending Atlanta Center
Thu 08:59:37 AM 32.7572 -84.6761 123° Southeast 527 606 34,000 -300 Descending Atlanta Center
Thu 09:00:37 AM 32.6767 -84.5250 122° Southeast 534 615 33,500 -500 Descending Atlanta Center
Thu 09:01:37 AM 32.5956 -84.3792 123° Southeast 534 615 33,000 -250 Descending Atlanta Center
Thu 09:02:37 AM 32.5125 -84.2333 124° Southeast 534 615 33,000  Level Atlanta Center
Thu 09:03:37 AM 32.4333 -84.0906 123° Southeast 527 606 33,000  Level Atlanta Center
Thu 09:04:37 AM 32.3561 -83.9478 123° Southeast 527 606 33,000 -736 Level Atlanta Center
Thu 09:06:20 AM 32.2264 -83.7178 124° Southeast 524 603 31,000 -1,252 Descending Jacksonville Center
Thu 09:07:20 AM 32.1481 -83.5772 123° Southeast 524 603 29,600 -1,400 Descending Jacksonville Center
Thu 09:08:20 AM 32.0611 -83.4244 124° Southeast 524 603 28,200 -1,350 Descending Jacksonville Center
Thu 09:09:20 AM 31.9842 -83.2894 124° Southeast 511 588 26,900 -1,300 Descending Jacksonville Center
Thu 09:10:20 AM 31.9117 -83.1619 124° Southeast 492 566 25,600 -1,300 Descending Jacksonville Center
Thu 09:11:20 AM 31.8386 -83.0294 123° Southeast 486 559 24,300 -800 Descending Jacksonville Center
Thu 09:12:20 AM 31.7656 -82.9072 125° Southeast 475 547 24,000 -950 Descending Jacksonville Center
Thu 09:13:20 AM 31.6947 -82.7803 123° Southeast 470 541 22,400 -1,550 Descending Jacksonville Center
Thu 09:14:20 AM 31.6192 -82.6536 125° Southeast 470 541 20,900 -1,500 Descending Jacksonville Center
Thu 09:15:20 AM 31.5481 -82.5342 125° Southeast 465 535 19,400 -1,500 Descending Jacksonville Center
Thu 09:16:20 AM 31.4475 -82.4617 148° Southeast 424 488 17,900 -1,500 Descending Jacksonville Center
Thu 09:17:20 AM 31.3389 -82.4158 160° South 409 471 16,400 -1,400 Descending Jacksonville Center
Thu 09:18:20 AM 31.2364 -82.3628 156° South 409 471 15,100 -1,321 Descending Jacksonville Center
Thu 09:19:09 AM 31.1506 -82.3172 156° South 396 456 14,000 -1,304 Descending Jacksonville Center
Thu 09:20:15 AM 31.0417 -82.2622 157° South 388 447 12,600 -945 Descending Jacksonville Center
Thu 09:21:16 AM 30.9600 -82.2289 161° South 293 337 12,000 -367 Descending Jacksonville Center
Thu 09:21:53 AM 30.9142 -82.2097 160° South 265 305 12,000 -938 Level Jacksonville Center
Thu 09:22:20 AM 30.8867 -82.1833 141° Southeast 311 358 11,000 -1,791 Descending Jacksonville Center
Thu 09:23:00 AM 30.8508 -82.1353 131° Southeast 273 314 10,000 -1,500 Descending Jacksonville Center
Thu 09:23:20 AM 30.8342 -82.1208 143° Southeast 277 319 9,500 -1,309 Descending Jacksonville Center
Thu 09:23:55 AM 30.8047 -82.0822 132° Southeast 265 305 8,800 -1,300 Descending Jacksonville Center
Thu 09:24:20 AM 30.7836 -82.0608 139° Southeast 271 312 8,200 -1,279 Descending Jacksonville Center
Thu 09:24:56 AM 30.7542 -82.0272 136° Southeast 247 284 7,500 -1,300 Descending Jacksonville Center
Thu 09:25:20 AM 30.7353 -82.0081 139° Southeast 256 295 6,900 -1,200 Descending Jacksonville Center
Thu 09:25:56 AM 30.7100 -81.9769 133° Southeast 219 252 6,300 -1,100 Descending Jacksonville Center
Thu 09:26:20 AM 30.6933 -81.9600 139° Southeast 233 268 5,800 -1,082 Descending Jacksonville Center
Thu 09:26:57 AM 30.6681 -81.9289 133° Southeast 207 238 5,200 -1,100 Descending Jacksonville Center
Thu 09:27:20 AM 30.6531 -81.9122 136° Southeast 213 245 4,700 -1,075 Descending Jacksonville Center
Thu 09:28:04 AM 30.6300 -81.8858 135° Southeast 166 191 4,000 -800 Descending Jacksonville Center
Thu 09:28:20 AM 30.6217 -81.8786 143° Southeast 196 226 3,900 -982 Descending Jacksonville Center
Thu 09:28:59 AM 30.5983 -81.8475 131° Southeast 167 192 3,100 -1,020 Descending Jacksonville Center
Thu 09:30:00 AM 30.5689 -81.8092 132° Southeast 158 182 2,200 -744 Descending Jacksonville Center
Thu 09:31:00 AM 30.5456 -81.7781 131° Southeast 99 114 1,600 -545 Descending Jacksonville Center
Thu 09:32:01 AM 30.5222 -81.7472 131° Southeast 129 148 1,100 -590 Descending Jacksonville Center
Thu 09:33:02 AM 30.5011 -81.7183 130° Southeast 133 153 400 -689 Descending Jacksonville Center
Thu 09:35:00 AM 30.4941 -81.6879 120° Southeast  Level Estimated

Login

Don't have an account? Register now (free) for customized features, flight alerts, and more!